Time;durP1;ratioP1;P1;durP2;ratioP2;P2;SDS_P1;SDS_P2;PMS_P1;PMS_P2;Temp;Humidity;BMP_temperature;BMP_pressure;BME280_temperature;BME280_humidity;BME280_pressure;Samples;Min_cycle;Max_cycle;Signal;HPM_P1;HPM_P2
2022/05/31 04:05:59;;;;;;;2.65;2.55;;;9.20;99.90;;;;;;4997707;28;20221;-61
2022/05/31 04:08:25;;;;;;;2.67;2.47;;;9.30;99.90;;;;;;4997330;28;20168;-60
2022/05/31 04:10:53;;;;;;;2.58;2.38;;;9.40;99.90;;;;;;4996210;28;20298;-62
2022/05/31 04:13:18;;;;;;;2.08;1.98;;;9.40;99.90;;;;;;4995650;28;20270;-60
2022/05/31 04:15:44;;;;;;;1.77;1.67;;;9.50;99.90;;;;;;4997227;28;20210;-60
2022/05/31 04:18:10;;;;;;;2.57;2.37;;;9.50;99.90;;;;;;4997160;28;20172;-61
2022/05/31 04:20:37;;;;;;;1.97;1.80;;;9.60;99.90;;;;;;4997031;28;20179;-62
2022/05/31 04:25:48;;;;;;;4.78;2.60;;;9.70;99.90;;;;;;4996984;28;20191;-63
2022/05/31 04:28:14;;;;;;;1.60;1.60;;;9.60;99.90;;;;;;4996925;28;20194;-61
2022/05/31 04:30:43;;;;;;;2.07;1.97;;;9.60;99.90;;;;;;4996842;28;20290;-61
2022/05/31 04:33:09;;;;;;;3.20;1.98;;;9.70;99.90;;;;;;4995845;28;20442;-62
2022/05/31 04:35:35;;;;;;;1.50;1.47;;;9.80;99.90;;;;;;4990714;28;20251;-61
2022/05/31 04:38:00;;;;;;;2.57;2.33;;;9.80;99.90;;;;;;4996825;28;20172;-62
2022/05/31 04:40:26;;;;;;;2.10;1.90;;;9.80;99.90;;;;;;4996777;28;20695;-61
2022/05/31 04:42:52;;;;;;;3.03;1.83;;;9.80;99.90;;;;;;4995719;28;20234;-61
2022/05/31 04:45:18;;;;;;;2.30;2.17;;;9.70;99.90;;;;;;4996754;28;20520;-61
2022/05/31 04:47:45;;;;;;;2.58;2.33;;;9.60;99.90;;;;;;4996561;28;20179;-62
2022/05/31 04:50:10;;;;;;;2.33;2.17;;;9.60;99.90;;;;;;4996066;28;20559;-62
2022/05/31 04:52:36;;;;;;;2.47;2.27;;;9.80;99.90;;;;;;4995855;28;20167;-61
2022/05/31 04:55:02;;;;;;;2.20;2.10;;;10.00;99.90;;;;;;4996362;28;20461;-61
2022/05/31 04:57:28;;;;;;;2.22;2.03;;;10.30;99.90;;;;;;4996368;28;20164;-66
2022/05/31 04:59:54;;;;;;;3.37;2.43;;;10.50;99.90;;;;;;4996334;28;20539;-68
2022/05/31 05:02:19;;;;;;;3.00;2.37;;;10.70;99.90;;;;;;4996135;28;20179;-66
2022/05/31 05:04:45;;;;;;;2.53;1.90;;;10.90;99.90;;;;;;4987853;28;20219;-61
2022/05/31 05:07:10;;;;;;;2.53;2.33;;;11.00;99.90;;;;;;4976631;28;20214;-62
2022/05/31 05:09:36;;;;;;;3.07;1.97;;;11.00;99.90;;;;;;4976769;28;20235;-63
2022/05/31 05:12:02;;;;;;;2.97;2.67;;;11.10;99.90;;;;;;4974338;28;20544;-66
2022/05/31 05:14:30;;;;;;;2.88;2.67;;;11.10;99.90;;;;;;4974274;28;20200;-63
2022/05/31 05:16:56;;;;;;;2.25;2.05;;;11.20;99.90;;;;;;4976572;28;20172;-64
2022/05/31 05:19:21;;;;;;;4.68;2.33;;;11.30;99.90;;;;;;4977580;28;20181;-65
2022/05/31 05:21:47;;;;;;;2.07;1.87;;;11.40;99.90;;;;;;4976556;28;20179;-63
2022/05/31 05:24:12;;;;;;;2.20;2.00;;;11.50;99.90;;;;;;4976012;28;20205;-63
2022/05/31 05:26:38;;;;;;;2.57;1.63;;;11.60;99.90;;;;;;4976429;28;20252;-62
2022/05/31 05:31:52;;;;;;;2.20;2.00;;;11.80;99.90;;;;;;4976150;28;20239;-62
2022/05/31 05:34:18;;;;;;;4.15;2.17;;;11.80;99.90;;;;;;4984737;28;20256;-64
2022/05/31 05:36:45;;;;;;;2.77;2.10;;;11.90;99.90;;;;;;4994238;28;20177;-62
2022/05/31 05:39:11;;;;;;;2.10;2.00;;;12.00;99.90;;;;;;4991701;28;20954;-63
2022/05/31 05:41:37;;;;;;;2.17;1.90;;;12.10;99.90;;;;;;4974806;28;20228;-63
2022/05/31 05:44:03;;;;;;;2.47;2.27;;;12.20;99.90;;;;;;4975565;28;20554;-63
2022/05/31 05:46:29;;;;;;;2.30;1.80;;;12.40;99.90;;;;;;4983564;28;20439;-63
2022/05/31 05:48:55;;;;;;;2.23;2.13;;;12.70;99.90;;;;;;4978124;28;20440;-62
2022/05/31 05:51:24;;;;;;;2.37;2.10;;;13.00;99.90;;;;;;4983983;28;20422;-63
2022/05/31 05:53:50;;;;;;;2.80;2.27;;;13.30;99.90;;;;;;4975249;28;20487;-65
2022/05/31 05:56:16;;;;;;;1.97;1.87;;;13.60;99.90;;;;;;4984572;28;20423;-62
2022/05/31 05:58:43;;;;;;;2.00;1.87;;;14.00;99.90;;;;;;4975241;28;20791;-63
2022/05/31 06:01:17;;;;;;;1.63;1.60;;;14.30;99.50;;;;;;4977697;28;20189;-63
2022/05/31 06:04:00;;;;;;;1.57;1.50;;;14.50;98.20;;;;;;4982946;28;20511;-63
2022/05/31 06:06:31;;;;;;;2.57;2.10;;;14.60;97.90;;;;;;4955867;29;20512;-65
2022/05/31 06:09:03;;;;;;;1.73;1.63;;;14.80;97.70;;;;;;4956044;28;20756;-64
2022/05/31 06:11:35;;;;;;;1.90;1.80;;;14.90;97.40;;;;;;4963854;28;20910;-62
2022/05/31 06:14:11;;;;;;;2.60;1.90;;;15.20;97.20;;;;;;4972590;28;20432;-63
2022/05/31 06:16:42;;;;;;;2.07;1.97;;;15.30;96.30;;;;;;4968165;28;20783;-63
2022/05/31 06:19:17;;;;;;;1.70;1.60;;;15.40;96.40;;;;;;4973000;28;20415;-64
2022/05/31 06:21:45;;;;;;;1.47;1.40;;;15.40;95.80;;;;;;4975391;28;20436;-63
2022/05/31 06:24:11;;;;;;;1.83;1.73;;;15.50;95.80;;;;;;4973270;28;20440;-65
2022/05/31 06:26:37;;;;;;;2.40;2.20;;;15.60;95.70;;;;;;4973997;28;20426;-64
2022/05/31 06:29:03;;;;;;;2.03;1.93;;;15.70;95.60;;;;;;4971904;28;20420;-64
2022/05/31 06:31:29;;;;;;;3.40;2.53;;;15.80;95.20;;;;;;4977611;28;20184;-64
2022/05/31 06:33:56;;;;;;;2.17;2.07;;;16.00;95.20;;;;;;4978924;28;20825;-63
2022/05/31 06:36:22;;;;;;;2.23;2.13;;;16.30;95.30;;;;;;4974653;28;20406;-63
2022/05/31 06:38:47;;;;;;;2.10;2.00;;;16.60;94.40;;;;;;4975236;28;20229;-62
2022/05/31 06:41:13;;;;;;;1.93;1.83;;;16.90;93.70;;;;;;4974848;28;20168;-63
2022/05/31 06:43:39;;;;;;;2.37;2.27;;;17.20;93.30;;;;;;4973729;28;20201;-62
2022/05/31 06:46:07;;;;;;;1.80;1.70;;;17.40;92.90;;;;;;4975680;28;20779;-63
2022/05/31 06:48:33;;;;;;;1.77;1.67;;;17.60;92.90;;;;;;4974401;28;20425;-63
2022/05/31 06:51:06;;;;;;;2.60;2.40;;;17.80;92.50;;;;;;4974722;28;20430;-62
2022/05/31 06:59:01;;;;;;;2.10;1.97;;;17.80;92.00;;;;;;4974869;28;20405;-63
2022/05/31 07:01:35;;;;;;;3.30;1.70;;;17.90;91.90;;;;;;4989653;28;20417;-63
2022/05/31 07:04:01;;;;;;;2.47;2.37;;;18.00;91.70;;;;;;4993588;28;20401;-63
2022/05/31 07:06:28;;;;;;;15.40;9.30;;;18.00;91.30;;;;;;4994013;28;20943;-63
2022/05/31 07:08:54;;;;;;;4.50;3.77;;;18.10;91.50;;;;;;4994008;28;20898;-62
2022/05/31 07:11:20;;;;;;;3.20;2.60;;;18.20;91.30;;;;;;4982181;28;20899;-63
2022/05/31 07:13:47;;;;;;;1.93;1.83;;;18.40;90.70;;;;;;4974118;28;20796;-65
2022/05/31 07:16:13;;;;;;;2.80;2.37;;;18.50;90.60;;;;;;4989915;28;20501;-63
2022/05/31 07:18:39;;;;;;;2.40;2.20;;;18.50;91.30;;;;;;4993763;28;20863;-62
2022/05/31 07:21:04;;;;;;;2.00;1.90;;;18.60;90.40;;;;;;4993588;28;20206;-64
2022/05/31 07:23:30;;;;;;;2.93;2.40;;;18.80;90.60;;;;;;4992088;28;20573;-63
2022/05/31 07:25:57;;;;;;;2.37;1.60;;;19.10;91.00;;;;;;4992492;28;20548;-63
2022/05/31 07:28:23;;;;;;;2.13;1.87;;;19.50;90.30;;;;;;4993857;28;20170;-63
2022/05/31 07:30:48;;;;;;;2.13;2.03;;;20.20;90.20;;;;;;4978588;28;20459;-63
2022/05/31 07:33:14;;;;;;;5.90;2.70;;;20.70;88.00;;;;;;4972328;28;20202;-63
2022/05/31 07:35:40;;;;;;;2.60;2.40;;;21.50;85.20;;;;;;4974396;28;20176;-64
2022/05/31 07:38:06;;;;;;;2.93;2.63;;;22.60;82.70;;;;;;4975447;28;20173;-64
2022/05/31 07:40:32;;;;;;;2.37;2.17;;;23.90;80.30;;;;;;4978075;28;20763;-66
2022/05/31 07:42:57;;;;;;;4.20;2.40;;;24.90;77.00;;;;;;4977751;28;20176;-64
2022/05/31 07:45:23;;;;;;;2.80;2.67;;;25.70;75.30;;;;;;4989368;28;20179;-64
2022/05/31 07:47:49;;;;;;;2.80;2.50;;;26.50;70.50;;;;;;4997789;28;20168;-64
2022/05/31 07:50:15;;;;;;;2.77;2.53;;;27.30;68.90;;;;;;4997291;28;20450;-64
2022/05/31 07:52:41;;;;;;;2.53;2.33;;;28.00;64.30;;;;;;4997738;28;20168;-64
2022/05/31 07:55:07;;;;;;;2.07;1.90;;;28.10;62.50;;;;;;4997531;28;20594;-64
2022/05/31 08:00:17;;;;;;;2.80;2.30;;;28.50;63.00;;;;;;4997410;28;20461;-62
2022/05/31 08:02:43;;;;;;;2.07;1.97;;;29.40;60.00;;;;;;4997097;28;20420;-63
2022/05/31 08:05:09;;;;;;;2.17;2.03;;;30.30;58.70;;;;;;4997380;28;20258;-62
2022/05/31 08:07:34;;;;;;;2.43;2.20;;;30.90;57.00;;;;;;4986043;28;20190;-63
2022/05/31 08:10:00;;;;;;;2.10;2.00;;;30.90;56.00;;;;;;4977409;28;20680;-63
2022/05/31 08:12:26;;;;;;;2.60;2.30;;;31.30;54.90;;;;;;4977491;28;20176;-63
2022/05/31 08:14:51;;;;;;;2.87;2.67;;;31.10;54.40;;;;;;4977859;28;20270;-62
2022/05/31 08:17:17;;;;;;;2.83;2.50;;;31.00;55.10;;;;;;4977743;28;20173;-63
2022/05/31 08:19:43;;;;;;;3.23;2.60;;;31.30;54.10;;;;;;4977874;28;20307;-63
2022/05/31 08:22:08;;;;;;;2.77;2.67;;;31.70;55.00;;;;;;4977278;28;20262;-64
2022/05/31 08:24:34;;;;;;;3.00;2.53;;;32.20;52.60;;;;;;4976293;28;20300;-63
2022/05/31 08:27:00;;;;;;;2.40;2.30;;;31.90;51.90;;;;;;4977497;28;20164;-62
2022/05/31 08:29:26;;;;;;;2.40;2.20;;;31.90;51.90;;;;;;4977476;28;20970;-64
2022/05/31 08:31:52;;;;;;;2.77;2.57;;;32.10;51.80;;;;;;4977509;28;20177;-60
2022/05/31 08:34:17;;;;;;;2.70;2.53;;;31.90;51.10;;;;;;4976889;28;20434;-61
2022/05/31 08:36:44;;;;;;;2.50;2.37;;;32.00;51.50;;;;;;4986002;28;20182;-60
2022/05/31 08:39:09;;;;;;;2.00;1.90;;;32.50;51.80;;;;;;4996579;28;20542;-62
2022/05/31 08:42:21;;;;;;;2.00;1.90;;;33.10;52.00;;;;;;4994625;28;20415;-63
2022/05/31 08:45:02;;;;;;;2.63;2.43;;;33.90;50.70;;;;;;4990823;28;20290;-61
2022/05/31 08:47:31;;;;;;;2.13;2.03;;;33.90;49.10;;;;;;4996625;28;20399;-61
2022/05/31 08:53:26;;;;;;;3.33;1.80;;;34.10;47.40;;;;;;4976572;28;20486;-62
2022/05/31 08:58:57;;;;;;;2.00;1.90;;;34.50;46.90;;;;;;4977168;28;20415;-61
2022/05/31 09:01:28;;;;;;;2.13;1.93;;;35.00;48.10;;;;;;4976642;28;20454;-62
2022/05/31 09:04:09;;;;;;;2.53;1.90;;;35.40;46.20;;;;;;4976079;28;20454;-63
2022/05/31 09:06:58;;;;;;;1.77;1.60;;;35.50;45.30;;;;;;4988510;28;20437;-61
2022/05/31 09:09:29;;;;;;;1.20;1.20;;;35.40;45.30;;;;;;4996050;28;20461;-62
2022/05/31 09:12:08;;;;;;;1.77;1.67;;;35.50;44.20;;;;;;4995930;28;20430;-62
2022/05/31 09:15:10;;;;;;;2.17;2.07;;;35.60;44.30;;;;;;4994529;28;20427;-61
2022/05/31 09:18:04;;;;;;;1.90;1.83;;;35.40;43.60;;;;;;4987767;28;20930;-63
2022/05/31 09:20:36;;;;;;;1.97;1.87;;;34.50;45.00;;;;;;4967563;28;20437;-61
2022/05/31 09:23:02;;;;;;;2.83;2.63;;;33.60;45.30;;;;;;4993979;28;20414;-61
2022/05/31 09:25:37;;;;;;;2.20;2.10;;;32.80;46.30;;;;;;4996023;28;20407;-61
2022/05/31 09:28:17;;;;;;;2.17;1.97;;;32.30;48.40;;;;;;4955823;28;20176;-62
2022/05/31 09:30:46;;;;;;;2.53;2.43;;;32.00;48.40;;;;;;4960013;28;20464;-62
2022/05/31 09:33:12;;;;;;;4.00;2.50;;;31.30;49.30;;;;;;4956255;28;20553;-60
2022/05/31 09:35:59;;;;;;;2.70;2.60;;;31.10;49.40;;;;;;4973991;28;20505;-60
2022/05/31 09:39:03;;;;;;;2.20;2.00;;;30.80;49.20;;;;;;4995718;28;20215;-60
2022/05/31 09:41:58;;;;;;;2.00;1.90;;;30.50;49.90;;;;;;4979219;28;20389;-63
2022/05/31 09:44:35;;;;;;;3.17;2.13;;;30.40;51.40;;;;;;4975888;28;20423;-60
2022/05/31 09:47:17;;;;;;;2.63;2.43;;;30.30;49.80;;;;;;4975898;28;20404;-59
2022/05/31 09:49:50;;;;;;;3.50;3.20;;;29.80;50.40;;;;;;4974877;28;20868;-63
2022/05/31 09:52:34;;;;;;;2.00;1.90;;;29.80;50.60;;;;;;4974431;28;20391;-62
2022/05/31 09:58:12;;;;;;;2.00;1.90;;;29.50;50.50;;;;;;4976221;28;20389;-62
2022/05/31 10:00:58;;;;;;;2.30;2.20;;;29.20;51.00;;;;;;4957886;28;20490;-65
2022/05/31 10:03:32;;;;;;;2.23;2.13;;;28.80;51.50;;;;;;4954604;28;20848;-65
2022/05/31 10:06:18;;;;;;;1.90;1.80;;;28.70;51.40;;;;;;4958640;28;20464;-66
2022/05/31 10:08:49;;;;;;;2.27;1.87;;;28.70;51.70;;;;;;4958115;28;20484;-65
2022/05/31 10:11:28;;;;;;;2.00;1.90;;;29.50;51.10;;;;;;4975673;28;20467;-63
2022/05/31 10:13:55;;;;;;;2.40;2.03;;;30.20;51.40;;;;;;4974940;28;20417;-64
2022/05/31 10:16:33;;;;;;;2.80;2.47;;;30.70;50.60;;;;;;4959072;28;20421;-66
2022/05/31 10:19:21;;;;;;;1.90;1.80;;;30.60;50.10;;;;;;4976820;28;20492;-60
2022/05/31 10:21:47;;;;;;;3.00;2.40;;;30.70;50.20;;;;;;4994469;28;20948;-62
2022/05/31 10:24:27;;;;;;;2.70;2.27;;;30.90;50.80;;;;;;4994172;28;20463;-60
2022/05/31 10:27:11;;;;;;;2.10;2.00;;;30.50;49.00;;;;;;4994476;28;20168;-60
2022/05/31 10:29:51;;;;;;;2.40;2.30;;;29.80;49.70;;;;;;4956013;29;20463;-60
2022/05/31 10:32:32;;;;;;;1.80;1.70;;;29.40;51.20;;;;;;4955764;29;20780;-61
2022/05/31 10:35:19;;;;;;;2.00;1.90;;;28.80;51.20;;;;;;4955910;28;20753;-60
2022/05/31 10:37:57;;;;;;;3.20;2.13;;;28.10;52.80;;;;;;4955811;28;20371;-60
2022/05/31 10:40:41;;;;;;;2.00;1.90;;;27.80;53.10;;;;;;4954622;28;20803;-61
2022/05/31 10:43:37;;;;;;;2.10;2.00;;;27.70;52.40;;;;;;4966661;28;20514;-61
2022/05/31 10:46:27;;;;;;;2.20;2.10;;;28.20;53.20;;;;;;4974869;28;20374;-63
2022/05/31 10:48:56;;;;;;;3.70;2.23;;;28.50;52.70;;;;;;4969825;28;20419;-63
2022/05/31 10:51:51;;;;;;;1.93;1.83;;;28.90;52.60;;;;;;4974938;28;20447;-66
2022/05/31 10:54:53;;;;;;;2.43;2.27;;;29.10;52.60;;;;;;4974418;28;20426;-63
2022/05/31 10:58:05;;;;;;;2.60;2.40;;;29.00;51.20;;;;;;4982015;28;20757;-62
2022/05/31 11:00:43;;;;;;;2.10;2.00;;;28.50;52.30;;;;;;4994573;28;20395;-63
2022/05/31 11:03:21;;;;;;;2.40;2.23;;;28.40;54.80;;;;;;4993987;28;20497;-64
2022/05/31 11:06:05;;;;;;;1.97;1.87;;;28.60;54.60;;;;;;4994348;28;20404;-63
2022/05/31 11:12:13;;;;;;;2.63;2.40;;;28.40;52.30;;;;;;4989247;28;20398;-65
2022/05/31 11:14:51;;;;;;;2.40;2.30;;;27.90;53.30;;;;;;4974583;28;20892;-63
2022/05/31 11:17:43;;;;;;;2.13;1.93;;;27.20;52.80;;;;;;4974329;28;20371;-62
2022/05/31 11:20:15;;;;;;;2.00;1.90;;;26.60;53.70;;;;;;4972055;28;20401;-65
2022/05/31 11:22:59;;;;;;;1.97;1.83;;;26.10;54.30;;;;;;4974045;28;20407;-65
2022/05/31 11:25:46;;;;;;;2.43;2.23;;;25.70;54.80;;;;;;4974756;28;20401;-64
2022/05/31 11:28:36;;;;;;;2.30;2.20;;;25.40;57.60;;;;;;4992813;28;20399;-63
2022/05/31 11:31:22;;;;;;;1.70;1.60;;;25.30;55.80;;;;;;4991848;28;20437;-64
2022/05/31 11:34:05;;;;;;;1.50;1.50;;;25.10;56.20;;;;;;4973999;28;20419;-64
2022/05/31 11:36:48;;;;;;;2.87;1.90;;;24.90;57.00;;;;;;4974622;28;20506;-64
2022/05/31 11:39:47;;;;;;;1.97;1.87;;;24.90;57.00;;;;;;4974215;28;20375;-64
2022/05/31 11:42:37;;;;;;;1.87;1.77;;;24.80;56.90;;;;;;4974064;28;20422;-63
2022/05/31 11:45:45;;;;;;;1.93;1.83;;;24.70;57.30;;;;;;4973801;28;20423;-63
2022/05/31 11:48:36;;;;;;;1.63;1.53;;;24.70;57.10;;;;;;4972856;28;20405;-64
2022/05/31 11:51:29;;;;;;;1.80;1.70;;;24.80;56.40;;;;;;4989006;28;20508;-63
2022/05/31 11:54:22;;;;;;;1.87;1.77;;;24.70;56.40;;;;;;4993017;28;20779;-64
2022/05/31 11:56:59;;;;;;;1.73;1.63;;;24.60;56.10;;;;;;4993548;28;20411;-64
2022/05/31 11:59:42;;;;;;;2.20;2.10;;;24.60;55.70;;;;;;4993317;28;20410;-63
2022/05/31 12:02:32;;;;;;;1.90;1.43;;;24.50;55.10;;;;;;4993372;28;20377;-64
2022/05/31 12:05:21;;;;;;;1.70;1.60;;;24.50;57.50;;;;;;4993269;28;20525;-62
2022/05/31 12:07:58;;;;;;;2.20;1.97;;;24.50;54.70;;;;;;4986597;28;20419;-63
2022/05/31 12:10:30;;;;;;;1.67;1.57;;;24.20;55.00;;;;;;4993442;28;20454;-63
2022/05/31 12:12:58;;;;;;;1.70;1.60;;;24.10;55.90;;;;;;4993111;28;20431;-63
2022/05/31 12:15:33;;;;;;;2.50;1.70;;;24.00;54.50;;;;;;4993474;28;20429;-62
2022/05/31 12:18:37;;;;;;;2.10;1.50;;;23.80;54.40;;;;;;4993451;28;20779;-64
2022/05/31 12:21:29;;;;;;;1.90;1.80;;;23.70;54.70;;;;;;4991565;28;20414;-63
2022/05/31 12:24:13;;;;;;;2.17;2.07;;;23.40;55.30;;;;;;4993087;28;20518;-63
2022/05/31 12:26:44;;;;;;;1.97;1.80;;;23.10;55.40;;;;;;4996795;28;20395;-64
2022/05/31 12:29:21;;;;;;;1.47;1.40;;;23.00;55.40;;;;;;4997124;28;20387;-65
2022/05/31 12:31:47;;;;;;;1.80;1.70;;;23.00;55.40;;;;;;4996982;28;20410;-65
2022/05/31 12:34:18;;;;;;;1.50;1.40;;;23.10;55.20;;;;;;4989568;28;20766;-65
2022/05/31 12:37:12;;;;;;;1.50;1.40;;;23.20;55.60;;;;;;4977726;28;20429;-65
2022/05/31 12:39:39;;;;;;;1.20;1.20;;;23.30;55.50;;;;;;4977564;28;20492;-63
2022/05/31 12:42:14;;;;;;;1.50;1.47;;;23.30;54.60;;;;;;4977062;28;20422;-64
2022/05/31 12:44:45;;;;;;;1.80;1.73;;;23.20;54.60;;;;;;4977847;28;20952;-65
2022/05/31 12:47:17;;;;;;;1.40;1.40;;;23.30;56.40;;;;;;4996154;28;20838;-66
2022/05/31 12:50:02;;;;;;;1.57;1.47;;;23.50;56.90;;;;;;4996812;28;20450;-65
2022/05/31 12:52:42;;;;;;;1.40;1.30;;;23.60;55.10;;;;;;4996076;28;20411;-65
2022/05/31 12:55:25;;;;;;;1.63;1.53;;;23.90;55.90;;;;;;4996335;28;20782;-65
2022/05/31 12:58:40;;;;;;;6.00;2.00;;;24.00;54.50;;;;;;4996503;28;20403;-65
2022/05/31 13:01:11;;;;;;;1.70;1.60;;;24.10;54.50;;;;;;4992609;28;20423;-65
2022/05/31 13:03:40;;;;;;;1.80;1.30;;;24.20;53.10;;;;;;4995738;28;20437;-65
2022/05/31 13:06:20;;;;;;;2.77;1.53;;;24.20;53.20;;;;;;4976964;28;20445;-65
2022/05/31 13:08:51;;;;;;;1.50;1.40;;;24.10;53.90;;;;;;4976870;28;20396;-64
2022/05/31 13:19:53;;;;;;;1.67;1.57;;;24.10;54.00;;;;;;4996042;28;20486;-66
2022/05/31 13:22:20;;;;;;;1.30;1.20;;;24.00;51.90;;;;;;4995006;28;20421;-63
2022/05/31 13:25:01;;;;;;;1.30;1.30;;;23.80;53.30;;;;;;4993894;28;20438;-64
2022/05/31 13:27:30;;;;;;;1.47;1.37;;;23.80;53.50;;;;;;4973703;28;20414;-64
2022/05/31 13:30:10;;;;;;;3.37;3.17;;;23.70;52.90;;;;;;4976049;28;20490;-64
2022/05/31 13:32:36;;;;;;;1.60;1.47;;;23.40;53.60;;;;;;4975882;28;20427;-63
2022/05/31 13:35:15;;;;;;;1.23;1.23;;;23.30;53.20;;;;;;4975338;28;20447;-63
2022/05/31 13:38:01;;;;;;;1.77;1.60;;;23.10;53.20;;;;;;4975576;28;20419;-63
2022/05/31 13:40:48;;;;;;;1.30;1.20;;;22.90;53.00;;;;;;4976110;28;20403;-64
2022/05/31 13:43:32;;;;;;;4.73;1.40;;;22.90;53.70;;;;;;4975877;28;20839;-65
2022/05/31 13:46:04;;;;;;;1.20;1.10;;;23.00;54.30;;;;;;4976141;28;20414;-65
2022/05/31 13:48:37;;;;;;;1.17;1.17;;;23.20;54.10;;;;;;4976004;28;20440;-64
2022/05/31 13:51:17;;;;;;;1.70;1.27;;;23.30;53.60;;;;;;4976176;28;20498;-63
2022/05/31 13:53:44;;;;;;;2.70;1.83;;;23.40;53.60;;;;;;4975659;28;20437;-63
2022/05/31 13:56:24;;;;;;;1.60;1.50;;;23.30;53.70;;;;;;4976150;28;20427;-64
2022/05/31 13:58:52;;;;;;;1.90;1.50;;;23.30;54.20;;;;;;4981419;28;20497;-64
2022/05/31 14:01:45;;;;;;;1.30;1.30;;;23.20;53.20;;;;;;4995302;28;20393;-65
2022/05/31 14:04:18;;;;;;;2.30;1.27;;;23.10;52.50;;;;;;4994651;28;20444;-65
2022/05/31 14:06:45;;;;;;;1.70;1.60;;;23.10;53.90;;;;;;4995306;28;20910;-65
2022/05/31 14:09:32;;;;;;;1.07;1.07;;;23.10;53.90;;;;;;4993115;28;20414;-65
2022/05/31 14:12:00;;;;;;;2.40;1.70;;;23.20;55.50;;;;;;4975975;28;20949;-65
2022/05/31 14:14:45;;;;;;;1.57;1.47;;;23.30;55.40;;;;;;4975415;28;20466;-64
2022/05/31 14:17:13;;;;;;;2.93;1.33;;;23.60;55.50;;;;;;4975655;28;20415;-63
2022/05/31 14:19:47;;;;;;;1.70;1.60;;;23.70;53.10;;;;;;4975634;28;20746;-63
2022/05/31 14:22:24;;;;;;;1.80;1.70;;;23.80;54.20;;;;;;4975028;28;20418;-65
2022/05/31 14:24:54;;;;;;;1.80;1.70;;;23.80;53.00;;;;;;4975303;28;20451;-64
2022/05/31 14:27:22;;;;;;;1.50;1.40;;;23.80;53.20;;;;;;4975581;28;20420;-64
2022/05/31 14:30:06;;;;;;;1.30;1.30;;;23.70;52.30;;;;;;4975354;28;20890;-63
2022/05/31 14:32:44;;;;;;;1.60;1.50;;;23.70;53.30;;;;;;4978101;28;20441;-65
2022/05/31 14:35:24;;;;;;;1.63;1.50;;;23.80;53.40;;;;;;4994677;28;20409;-64
2022/05/31 14:37:51;;;;;;;3.83;1.47;;;23.80;52.70;;;;;;4994848;28;20381;-63
2022/05/31 14:40:33;;;;;;;1.50;1.40;;;23.70;53.40;;;;;;4994621;28;20450;-65
2022/05/31 14:43:15;;;;;;;7.73;2.37;;;23.60;51.90;;;;;;4993994;28;20486;-65
2022/05/31 14:45:48;;;;;;;1.77;1.67;;;23.50;51.90;;;;;;4994497;28;20401;-64
2022/05/31 14:48:40;;;;;;;1.43;1.33;;;23.20;51.90;;;;;;4993275;28;20430;-64
2022/05/31 14:51:21;;;;;;;1.30;1.30;;;23.10;52.50;;;;;;4994179;28;20958;-63
2022/05/31 14:53:53;;;;;;;5.40;1.60;;;22.90;52.90;;;;;;4993853;28;20466;-64
2022/05/31 14:56:33;;;;;;;1.20;1.20;;;22.90;53.10;;;;;;4994396;28;20405;-65
2022/05/31 14:59:01;;;;;;;1.50;1.40;;;22.90;54.70;;;;;;4994384;28;20373;-65
2022/05/31 15:01:45;;;;;;;4.10;1.30;;;22.90;54.00;;;;;;4994051;28;20413;-63
2022/05/31 15:04:31;;;;;;;2.60;1.77;;;23.10;55.20;;;;;;4955152;28;20463;-65
2022/05/31 15:07:23;;;;;;;1.60;1.50;;;23.20;54.90;;;;;;4955706;28;20412;-66
2022/05/31 15:10:22;;;;;;;1.63;1.53;;;23.10;53.80;;;;;;4953282;29;20471;-64
2022/05/31 15:21:25;;;;;;;2.43;2.23;;;22.90;54.10;;;;;;4974702;28;20409;-63
2022/05/31 15:23:52;;;;;;;1.53;1.43;;;22.80;52.80;;;;;;4974046;28;20750;-64
2022/05/31 15:26:18;;;;;;;1.43;1.33;;;22.60;52.80;;;;;;4974549;28;20591;-64
2022/05/31 15:28:45;;;;;;;1.27;1.27;;;22.50;53.10;;;;;;4974382;28;20425;-65
2022/05/31 15:31:30;;;;;;;2.73;1.90;;;22.40;52.80;;;;;;4974918;28;20426;-63
2022/05/31 15:33:56;;;;;;;1.47;1.37;;;22.30;53.20;;;;;;4993350;28;20436;-64
2022/05/31 15:36:22;;;;;;;4.97;1.83;;;22.20;53.30;;;;;;4993811;28;20438;-64
2022/05/31 15:38:48;;;;;;;1.50;1.40;;;22.10;53.70;;;;;;4992577;28;20182;-64
2022/05/31 15:41:14;;;;;;;1.43;1.33;;;22.00;53.50;;;;;;4993573;28;20419;-63
2022/05/31 15:43:52;;;;;;;2.20;2.00;;;21.80;53.70;;;;;;4993107;28;20267;-64
2022/05/31 15:46:21;;;;;;;1.57;1.43;;;21.70;53.60;;;;;;4993409;28;20807;-64
2022/05/31 15:48:48;;;;;;;1.30;1.20;;;21.60;53.80;;;;;;4993607;28;20415;-64
2022/05/31 15:51:19;;;;;;;2.10;1.90;;;21.50;54.30;;;;;;4974597;28;21034;-64
2022/05/31 15:53:45;;;;;;;1.00;1.00;;;21.40;54.10;;;;;;4972428;28;20486;-64
2022/05/31 15:56:10;;;;;;;1.50;1.40;;;21.30;54.30;;;;;;4974185;28;20799;-63
2022/05/31 15:58:36;;;;;;;1.23;1.03;;;21.20;54.40;;;;;;4974569;28;20665;-64
2022/05/31 16:01:02;;;;;;;1.23;1.23;;;21.20;54.70;;;;;;4977818;28;20190;-64
2022/05/31 16:03:27;;;;;;;1.20;1.10;;;21.20;54.80;;;;;;4977369;28;20270;-64
2022/05/31 16:05:56;;;;;;;1.23;1.23;;;21.20;54.70;;;;;;4977686;28;20210;-63
2022/05/31 16:08:23;;;;;;;1.23;1.23;;;21.30;54.70;;;;;;4978152;28;20584;-64
2022/05/31 16:10:49;;;;;;;1.40;1.30;;;21.30;54.70;;;;;;4977866;28;20538;-65
2022/05/31 16:13:15;;;;;;;1.27;1.27;;;21.40;54.60;;;;;;4977078;28;20443;-64
2022/05/31 16:15:42;;;;;;;3.10;1.57;;;21.50;55.00;;;;;;4980373;28;20504;-64
2022/05/31 16:18:07;;;;;;;1.60;1.50;;;21.50;54.90;;;;;;4997056;28;20563;-64
2022/05/31 16:20:33;;;;;;;2.53;1.43;;;21.50;55.30;;;;;;4997151;28;20486;-64
2022/05/31 16:23:00;;;;;;;1.10;1.10;;;21.50;54.70;;;;;;4996434;28;20309;-64
2022/05/31 16:25:27;;;;;;;1.17;1.17;;;21.50;54.70;;;;;;4997246;28;20181;-65
2022/05/31 16:27:56;;;;;;;1.13;1.10;;;21.60;54.40;;;;;;4997110;28;20466;-64
2022/05/31 16:33:07;;;;;;;7.40;2.73;;;21.70;55.10;;;;;;4996880;28;20449;-65
2022/05/31 16:35:33;;;;;;;2.27;2.07;;;21.70;54.60;;;;;;4996923;28;20423;-64
2022/05/31 16:43:35;;;;;;;1.17;1.17;;;21.90;55.20;;;;;;4957570;29;20457;-64
2022/05/31 16:46:00;;;;;;;2.33;1.57;;;22.00;55.00;;;;;;4982203;28;20951;-63
2022/05/31 16:48:28;;;;;;;4.90;2.33;;;22.10;54.80;;;;;;4996818;28;20179;-63
2022/05/31 16:50:55;;;;;;;1.83;1.73;;;22.10;54.70;;;;;;4996600;28;20218;-64
2022/05/31 16:53:20;;;;;;;1.80;1.70;;;22.20;54.80;;;;;;4996375;28;20445;-63
2022/05/31 16:55:46;;;;;;;1.47;1.37;;;22.30;54.70;;;;;;4996571;28;20407;-64
2022/05/31 16:58:12;;;;;;;1.70;1.57;;;22.20;54.30;;;;;;4996561;28;20408;-64
2022/05/31 17:00:38;;;;;;;1.80;1.70;;;22.20;54.40;;;;;;4985163;28;20191;-64
2022/05/31 17:03:04;;;;;;;1.20;1.20;;;22.10;54.50;;;;;;4976168;28;20502;-64
2022/05/31 17:05:32;;;;;;;1.53;1.43;;;22.10;54.60;;;;;;4970403;28;20427;-67
2022/05/31 17:16:10;;;;;;;1.50;1.43;;;21.80;55.70;;;;;;4976442;28;20442;-63
2022/05/31 17:18:36;;;;;;;2.03;1.93;;;21.80;56.20;;;;;;4976562;28;20895;-64
2022/05/31 17:21:03;;;;;;;1.50;1.40;;;21.80;55.70;;;;;;4976456;28;20176;-64
2022/05/31 17:23:37;;;;;;;1.40;1.30;;;21.70;55.60;;;;;;4975797;28;20208;-65
2022/05/31 17:26:07;;;;;;;1.40;1.30;;;21.50;55.20;;;;;;4977303;28;20426;-64
2022/05/31 17:28:40;;;;;;;1.80;1.70;;;21.50;55.40;;;;;;4985673;28;20429;-63
2022/05/31 17:31:06;;;;;;;1.47;1.40;;;21.40;55.90;;;;;;4972522;28;20452;-65
2022/05/31 17:33:31;;;;;;;1.70;1.57;;;21.20;55.20;;;;;;4974292;28;20431;-64
2022/05/31 17:36:03;;;;;;;1.50;1.40;;;21.20;55.80;;;;;;4974724;28;20264;-64
2022/05/31 17:38:33;;;;;;;1.50;1.40;;;21.00;56.70;;;;;;4972890;28;20227;-64
2022/05/31 17:40:58;;;;;;;2.00;1.90;;;20.90;57.50;;;;;;4974789;28;20977;-64
2022/05/31 17:43:24;;;;;;;3.27;1.50;;;20.80;57.80;;;;;;4971752;28;20519;-64
2022/05/31 17:45:50;;;;;;;1.80;1.70;;;20.70;58.30;;;;;;4974744;28;20184;-64
2022/05/31 17:48:16;;;;;;;2.43;1.47;;;20.60;58.80;;;;;;4974602;28;20211;-64
2022/05/31 17:50:42;;;;;;;1.40;1.40;;;20.40;59.00;;;;;;4974615;28;20254;-64
2022/05/31 17:53:15;;;;;;;1.17;1.17;;;20.40;59.80;;;;;;4974179;28;20176;-66
2022/05/31 17:55:40;;;;;;;1.50;1.40;;;20.30;61.40;;;;;;4975669;28;20498;-64
2022/05/31 17:58:06;;;;;;;2.47;2.23;;;20.20;63.60;;;;;;4974572;28;20503;-65
2022/05/31 18:00:34;;;;;;;1.70;1.60;;;20.10;65.20;;;;;;4974453;28;20201;-63
2022/05/31 18:03:02;;;;;;;1.37;1.27;;;20.00;65.60;;;;;;4974611;28;20184;-65
2022/05/31 18:05:28;;;;;;;1.40;1.40;;;19.90;67.10;;;;;;4974831;28;20435;-68
2022/05/31 18:07:54;;;;;;;1.30;1.30;;;19.80;67.20;;;;;;4973837;28;20815;-67
2022/05/31 18:10:21;;;;;;;2.20;2.07;;;19.70;68.30;;;;;;4975152;28;20506;-66
2022/05/31 18:12:51;;;;;;;3.90;1.60;;;19.60;70.60;;;;;;4974354;28;20176;-65
2022/05/31 18:15:18;;;;;;;1.53;1.43;;;19.50;71.60;;;;;;4971228;28;20799;-66
2022/05/31 18:17:45;;;;;;;2.50;1.63;;;19.50;72.40;;;;;;4973887;28;20419;-66
2022/05/31 18:20:12;;;;;;;1.90;1.80;;;19.40;73.70;;;;;;4973947;28;20390;-65
2022/05/31 18:22:39;;;;;;;2.37;1.80;;;19.40;75.00;;;;;;4973586;28;20769;-65